sensor_id;sensor_type;location;lat;lon;timestamp;P1;durP1;ratioP1;P2;durP2;ratioP2
67804;SDS011;54603;45.638;11.714;2023-02-21T00:02:20;16.40;;;11.70;;
67804;SDS011;54603;45.638;11.714;2023-02-21T00:05:05;16.10;;;12.50;;
67804;SDS011;54603;45.638;11.714;2023-02-21T00:07:49;16.00;;;12.20;;
67804;SDS011;54603;45.638;11.714;2023-02-21T00:10:33;18.00;;;12.50;;
67804;SDS011;54603;45.638;11.714;2023-02-21T00:13:17;14.70;;;11.80;;
67804;SDS011;54603;45.638;11.714;2023-02-21T00:16:01;15.60;;;12.00;;
67804;SDS011;54603;45.638;11.714;2023-02-21T00:18:45;16.20;;;11.90;;
67804;SDS011;54603;45.638;11.714;2023-02-21T00:21:30;16.50;;;12.20;;
67804;SDS011;54603;45.638;11.714;2023-02-21T00:24:14;15.50;;;11.80;;
67804;SDS011;54603;45.638;11.714;2023-02-21T00:26:59;14.90;;;12.40;;
67804;SDS011;54603;45.638;11.714;2023-02-21T00:29:45;15.40;;;12.00;;
67804;SDS011;54603;45.638;11.714;2023-02-21T00:32:30;15.50;;;12.30;;
67804;SDS011;54603;45.638;11.714;2023-02-21T00:35:14;14.80;;;12.00;;
67804;SDS011;54603;45.638;11.714;2023-02-21T00:37:58;15.70;;;12.10;;
67804;SDS011;54603;45.638;11.714;2023-02-21T00:40:43;14.80;;;12.20;;
67804;SDS011;54603;45.638;11.714;2023-02-21T00:43:30;17.70;;;12.80;;
67804;SDS011;54603;45.638;11.714;2023-02-21T00:46:16;15.30;;;12.60;;
67804;SDS011;54603;45.638;11.714;2023-02-21T00:49:02;15.00;;;12.20;;
67804;SDS011;54603;45.638;11.714;2023-02-21T00:51:49;14.00;;;12.10;;
67804;SDS011;54603;45.638;11.714;2023-02-21T00:54:34;17.10;;;12.40;;
67804;SDS011;54603;45.638;11.714;2023-02-21T00:57:18;15.00;;;12.20;;
67804;SDS011;54603;45.638;11.714;2023-02-21T01:00:03;16.70;;;12.10;;
67804;SDS011;54603;45.638;11.714;2023-02-21T01:02:49;14.40;;;12.40;;
67804;SDS011;54603;45.638;11.714;2023-02-21T01:05:33;15.30;;;12.60;;
67804;SDS011;54603;45.638;11.714;2023-02-21T01:08:17;17.30;;;12.60;;
67804;SDS011;54603;45.638;11.714;2023-02-21T01:11:01;17.80;;;12.40;;
67804;SDS011;54603;45.638;11.714;2023-02-21T01:13:45;16.70;;;13.10;;
67804;SDS011;54603;45.638;11.714;2023-02-21T01:16:30;17.10;;;12.20;;
67804;SDS011;54603;45.638;11.714;2023-02-21T01:19:15;16.70;;;12.90;;
67804;SDS011;54603;45.638;11.714;2023-02-21T01:22:00;15.10;;;12.20;;
67804;SDS011;54603;45.638;11.714;2023-02-21T01:24:47;16.00;;;12.70;;
67804;SDS011;54603;45.638;11.714;2023-02-21T01:27:33;18.00;;;13.20;;
67804;SDS011;54603;45.638;11.714;2023-02-21T01:30:17;16.70;;;13.10;;
67804;SDS011;54603;45.638;11.714;2023-02-21T01:33:02;17.60;;;13.20;;
67804;SDS011;54603;45.638;11.714;2023-02-21T01:35:46;17.50;;;13.20;;
67804;SDS011;54603;45.638;11.714;2023-02-21T01:38:32;17.70;;;13.30;;
67804;SDS011;54603;45.638;11.714;2023-02-21T01:41:17;14.70;;;12.30;;
67804;SDS011;54603;45.638;11.714;2023-02-21T01:44:05;18.80;;;13.40;;
67804;SDS011;54603;45.638;11.714;2023-02-21T01:47:06;19.30;;;13.50;;
67804;SDS011;54603;45.638;11.714;2023-02-21T01:49:54;17.80;;;13.00;;
67804;SDS011;54603;45.638;11.714;2023-02-21T01:52:38;17.50;;;13.10;;
67804;SDS011;54603;45.638;11.714;2023-02-21T01:55:22;18.10;;;13.50;;
67804;SDS011;54603;45.638;11.714;2023-02-21T01:58:06;18.90;;;13.90;;
67804;SDS011;54603;45.638;11.714;2023-02-21T02:00:50;16.90;;;13.10;;
67804;SDS011;54603;45.638;11.714;2023-02-21T02:03:34;16.60;;;13.10;;
67804;SDS011;54603;45.638;11.714;2023-02-21T02:06:19;18.50;;;12.80;;
67804;SDS011;54603;45.638;11.714;2023-02-21T02:09:14;18.00;;;13.30;;
67804;SDS011;54603;45.638;11.714;2023-02-21T02:15:11;17.10;;;13.60;;
67804;SDS011;54603;45.638;11.714;2023-02-21T02:36:48;15.50;;;12.90;;
67804;SDS011;54603;45.638;11.714;2023-02-21T02:42:25;18.10;;;13.60;;
67804;SDS011;54603;45.638;11.714;2023-02-21T02:48:00;16.30;;;13.30;;
67804;SDS011;54603;45.638;11.714;2023-02-21T02:50:28;17.80;;;13.70;;
67804;SDS011;54603;45.638;11.714;2023-02-21T02:52:55;17.40;;;14.40;;
67804;SDS011;54603;45.638;11.714;2023-02-21T03:00:34;17.90;;;13.60;;
67804;SDS011;54603;45.638;11.714;2023-02-21T03:08:35;18.90;;;14.20;;
67804;SDS011;54603;45.638;11.714;2023-02-21T03:11:14;17.40;;;14.40;;
67804;SDS011;54603;45.638;11.714;2023-02-21T03:13:45;20.10;;;15.00;;
67804;SDS011;54603;45.638;11.714;2023-02-21T03:16:19;19.10;;;14.30;;
67804;SDS011;54603;45.638;11.714;2023-02-21T03:18:49;18.60;;;14.50;;
67804;SDS011;54603;45.638;11.714;2023-02-21T03:21:23;19.10;;;14.60;;
67804;SDS011;54603;45.638;11.714;2023-02-21T03:23:56;16.30;;;13.90;;
67804;SDS011;54603;45.638;11.714;2023-02-21T03:26:23;17.50;;;14.30;;
67804;SDS011;54603;45.638;11.714;2023-02-21T03:28:51;17.80;;;15.00;;
67804;SDS011;54603;45.638;11.714;2023-02-21T03:31:18;19.00;;;14.40;;
67804;SDS011;54603;45.638;11.714;2023-02-21T03:33:47;20.80;;;15.80;;
67804;SDS011;54603;45.638;11.714;2023-02-21T03:36:13;17.00;;;14.70;;
67804;SDS011;54603;45.638;11.714;2023-02-21T03:38:40;19.80;;;14.60;;
67804;SDS011;54603;45.638;11.714;2023-02-21T03:41:06;18.20;;;14.20;;
67804;SDS011;54603;45.638;11.714;2023-02-21T03:43:32;18.10;;;14.20;;
67804;SDS011;54603;45.638;11.714;2023-02-21T03:45:58;19.30;;;14.60;;
67804;SDS011;54603;45.638;11.714;2023-02-21T03:48:23;18.40;;;14.60;;
67804;SDS011;54603;45.638;11.714;2023-02-21T03:50:49;18.50;;;14.40;;
67804;SDS011;54603;45.638;11.714;2023-02-21T03:53:14;21.20;;;15.40;;
67804;SDS011;54603;45.638;11.714;2023-02-21T03:55:40;16.90;;;14.10;;
67804;SDS011;54603;45.638;11.714;2023-02-21T03:58:05;19.00;;;14.70;;
67804;SDS011;54603;45.638;11.714;2023-02-21T04:00:31;18.00;;;14.90;;
67804;SDS011;54603;45.638;11.714;2023-02-21T04:02:56;18.10;;;15.30;;
67804;SDS011;54603;45.638;11.714;2023-02-21T04:05:22;19.10;;;15.70;;
67804;SDS011;54603;45.638;11.714;2023-02-21T04:07:47;19.70;;;15.20;;
67804;SDS011;54603;45.638;11.714;2023-02-21T04:10:13;22.50;;;15.70;;
67804;SDS011;54603;45.638;11.714;2023-02-21T04:12:39;18.30;;;14.90;;
67804;SDS011;54603;45.638;11.714;2023-02-21T04:15:04;20.50;;;15.10;;
67804;SDS011;54603;45.638;11.714;2023-02-21T04:17:30;18.40;;;15.00;;
67804;SDS011;54603;45.638;11.714;2023-02-21T04:19:56;19.30;;;15.80;;
67804;SDS011;54603;45.638;11.714;2023-02-21T04:22:21;18.50;;;15.30;;
67804;SDS011;54603;45.638;11.714;2023-02-21T04:24:47;20.60;;;15.00;;
67804;SDS011;54603;45.638;11.714;2023-02-21T04:27:13;19.30;;;15.40;;
67804;SDS011;54603;45.638;11.714;2023-02-21T04:29:39;18.60;;;15.50;;
67804;SDS011;54603;45.638;11.714;2023-02-21T04:32:05;21.10;;;15.40;;
67804;SDS011;54603;45.638;11.714;2023-02-21T04:34:31;19.10;;;15.20;;
67804;SDS011;54603;45.638;11.714;2023-02-21T04:36:56;20.10;;;15.30;;
67804;SDS011;54603;45.638;11.714;2023-02-21T04:39:22;20.40;;;16.00;;
67804;SDS011;54603;45.638;11.714;2023-02-21T04:41:49;20.80;;;15.60;;
67804;SDS011;54603;45.638;11.714;2023-02-21T04:44:18;19.40;;;15.30;;
67804;SDS011;54603;45.638;11.714;2023-02-21T04:46:48;20.40;;;16.40;;
67804;SDS011;54603;45.638;11.714;2023-02-21T04:49:14;18.50;;;15.70;;
67804;SDS011;54603;45.638;11.714;2023-02-21T04:51:40;19.60;;;15.60;;
67804;SDS011;54603;45.638;11.714;2023-02-21T04:54:06;19.30;;;15.40;;
67804;SDS011;54603;45.638;11.714;2023-02-21T04:56:32;18.80;;;15.80;;
67804;SDS011;54603;45.638;11.714;2023-02-21T04:58:57;19.60;;;15.80;;
67804;SDS011;54603;45.638;11.714;2023-02-21T05:01:25;18.80;;;15.60;;
67804;SDS011;54603;45.638;11.714;2023-02-21T05:03:52;19.80;;;16.10;;
67804;SDS011;54603;45.638;11.714;2023-02-21T05:06:18;19.60;;;16.00;;
67804;SDS011;54603;45.638;11.714;2023-02-21T05:08:45;18.80;;;15.30;;
67804;SDS011;54603;45.638;11.714;2023-02-21T05:11:10;19.80;;;16.20;;
67804;SDS011;54603;45.638;11.714;2023-02-21T05:13:36;21.20;;;16.50;;
67804;SDS011;54603;45.638;11.714;2023-02-21T05:16:02;21.60;;;16.30;;
67804;SDS011;54603;45.638;11.714;2023-02-21T05:18:27;22.40;;;16.60;;
67804;SDS011;54603;45.638;11.714;2023-02-21T05:20:53;19.70;;;15.80;;
67804;SDS011;54603;45.638;11.714;2023-02-21T05:23:19;20.10;;;15.70;;
67804;SDS011;54603;45.638;11.714;2023-02-21T05:25:58;20.00;;;16.40;;
67804;SDS011;54603;45.638;11.714;2023-02-21T05:28:36;19.70;;;16.00;;
67804;SDS011;54603;45.638;11.714;2023-02-21T05:31:03;19.30;;;16.10;;
67804;SDS011;54603;45.638;11.714;2023-02-21T05:33:29;20.60;;;16.50;;
67804;SDS011;54603;45.638;11.714;2023-02-21T05:35:55;19.40;;;16.00;;
67804;SDS011;54603;45.638;11.714;2023-02-21T05:38:21;19.60;;;16.20;;
67804;SDS011;54603;45.638;11.714;2023-02-21T05:40:47;22.10;;;17.30;;
67804;SDS011;54603;45.638;11.714;2023-02-21T05:43:13;19.90;;;15.90;;
67804;SDS011;54603;45.638;11.714;2023-02-21T05:45:39;21.40;;;16.70;;
67804;SDS011;54603;45.638;11.714;2023-02-21T05:48:05;19.60;;;16.40;;
67804;SDS011;54603;45.638;11.714;2023-02-21T05:50:30;21.20;;;16.90;;
67804;SDS011;54603;45.638;11.714;2023-02-21T05:52:56;19.80;;;16.70;;
67804;SDS011;54603;45.638;11.714;2023-02-21T05:55:22;21.50;;;16.40;;
67804;SDS011;54603;45.638;11.714;2023-02-21T05:57:48;20.00;;;16.20;;
67804;SDS011;54603;45.638;11.714;2023-02-21T06:00:17;20.80;;;16.50;;
67804;SDS011;54603;45.638;11.714;2023-02-21T06:02:45;20.60;;;16.70;;
67804;SDS011;54603;45.638;11.714;2023-02-21T06:05:11;22.60;;;16.40;;
67804;SDS011;54603;45.638;11.714;2023-02-21T06:07:37;20.10;;;16.90;;
67804;SDS011;54603;45.638;11.714;2023-02-21T06:10:03;20.20;;;16.90;;
67804;SDS011;54603;45.638;11.714;2023-02-21T06:12:29;22.50;;;17.60;;
67804;SDS011;54603;45.638;11.714;2023-02-21T06:14:54;23.30;;;17.20;;
67804;SDS011;54603;45.638;11.714;2023-02-21T06:17:20;20.60;;;17.20;;
67804;SDS011;54603;45.638;11.714;2023-02-21T06:19:45;22.00;;;17.10;;
67804;SDS011;54603;45.638;11.714;2023-02-21T06:22:11;20.70;;;16.10;;
67804;SDS011;54603;45.638;11.714;2023-02-21T06:24:36;23.10;;;17.20;;
67804;SDS011;54603;45.638;11.714;2023-02-21T07:13:51;28.60;;;19.10;;
67804;SDS011;54603;45.638;11.714;2023-02-21T07:16:18;20.80;;;17.10;;
67804;SDS011;54603;45.638;11.714;2023-02-21T07:18:44;22.00;;;17.50;;
67804;SDS011;54603;45.638;11.714;2023-02-21T07:21:10;25.60;;;18.90;;
67804;SDS011;54603;45.638;11.714;2023-02-21T07:23:36;25.70;;;18.00;;
67804;SDS011;54603;45.638;11.714;2023-02-21T07:37:05;25.20;;;20.60;;
67804;SDS011;54603;45.638;11.714;2023-02-21T07:39:32;27.00;;;19.90;;
67804;SDS011;54603;45.638;11.714;2023-02-21T07:41:57;25.20;;;19.90;;
67804;SDS011;54603;45.638;11.714;2023-02-21T07:44:23;29.00;;;20.60;;
67804;SDS011;54603;45.638;11.714;2023-02-21T07:46:49;28.20;;;20.10;;
67804;SDS011;54603;45.638;11.714;2023-02-21T07:49:15;29.50;;;20.20;;
67804;SDS011;54603;45.638;11.714;2023-02-21T07:51:44;28.10;;;20.50;;
67804;SDS011;54603;45.638;11.714;2023-02-21T07:54:09;30.40;;;20.60;;
67804;SDS011;54603;45.638;11.714;2023-02-21T07:56:35;26.90;;;20.80;;
67804;SDS011;54603;45.638;11.714;2023-02-21T07:59:00;28.50;;;20.70;;
67804;SDS011;54603;45.638;11.714;2023-02-21T08:01:26;33.80;;;21.00;;
67804;SDS011;54603;45.638;11.714;2023-02-21T08:03:52;29.50;;;20.80;;
67804;SDS011;54603;45.638;11.714;2023-02-21T08:07:29;30.90;;;21.70;;
67804;SDS011;54603;45.638;11.714;2023-02-21T08:09:54;29.90;;;21.10;;
67804;SDS011;54603;45.638;11.714;2023-02-21T08:12:20;34.90;;;22.50;;
67804;SDS011;54603;45.638;11.714;2023-02-21T08:14:45;34.00;;;22.50;;
67804;SDS011;54603;45.638;11.714;2023-02-21T08:17:11;30.80;;;21.70;;
67804;SDS011;54603;45.638;11.714;2023-02-21T08:19:38;28.90;;;21.10;;
67804;SDS011;54603;45.638;11.714;2023-02-21T08:22:04;30.30;;;20.30;;
67804;SDS011;54603;45.638;11.714;2023-02-21T08:24:29;32.10;;;21.60;;
67804;SDS011;54603;45.638;11.714;2023-02-21T08:26:55;29.60;;;21.10;;
67804;SDS011;54603;45.638;11.714;2023-02-21T08:29:21;29.60;;;21.00;;
67804;SDS011;54603;45.638;11.714;2023-02-21T08:31:46;31.40;;;20.70;;
67804;SDS011;54603;45.638;11.714;2023-02-21T08:34:12;29.60;;;21.00;;
67804;SDS011;54603;45.638;11.714;2023-02-21T08:36:39;27.70;;;19.90;;
67804;SDS011;54603;45.638;11.714;2023-02-21T08:39:06;28.00;;;21.20;;
67804;SDS011;54603;45.638;11.714;2023-02-21T08:41:37;24.20;;;19.40;;
67804;SDS011;54603;45.638;11.714;2023-02-21T08:44:07;27.00;;;20.10;;
67804;SDS011;54603;45.638;11.714;2023-02-21T08:46:33;31.10;;;20.40;;
67804;SDS011;54603;45.638;11.714;2023-02-21T08:48:59;29.30;;;20.80;;
67804;SDS011;54603;45.638;11.714;2023-02-21T08:51:25;27.90;;;19.60;;
67804;SDS011;54603;45.638;11.714;2023-02-21T08:53:51;31.40;;;20.40;;
67804;SDS011;54603;45.638;11.714;2023-02-21T08:56:18;31.50;;;20.50;;
67804;SDS011;54603;45.638;11.714;2023-02-21T08:58:46;28.10;;;20.00;;
67804;SDS011;54603;45.638;11.714;2023-02-21T09:01:12;29.60;;;20.20;;
67804;SDS011;54603;45.638;11.714;2023-02-21T09:03:38;27.00;;;19.20;;
67804;SDS011;54603;45.638;11.714;2023-02-21T09:06:04;28.50;;;19.10;;
67804;SDS011;54603;45.638;11.714;2023-02-21T09:08:30;27.50;;;19.90;;
67804;SDS011;54603;45.638;11.714;2023-02-21T09:10:56;26.30;;;19.00;;
67804;SDS011;54603;45.638;11.714;2023-02-21T09:13:25;25.70;;;18.40;;
67804;SDS011;54603;45.638;11.714;2023-02-21T09:15:51;26.20;;;19.20;;
67804;SDS011;54603;45.638;11.714;2023-02-21T09:18:17;26.20;;;20.20;;
67804;SDS011;54603;45.638;11.714;2023-02-21T09:20:42;27.70;;;19.80;;
67804;SDS011;54603;45.638;11.714;2023-02-21T09:23:13;24.20;;;18.60;;
67804;SDS011;54603;45.638;11.714;2023-02-21T09:25:41;28.50;;;19.10;;
67804;SDS011;54603;45.638;11.714;2023-02-21T09:28:07;22.10;;;18.20;;
67804;SDS011;54603;45.638;11.714;2023-02-21T09:30:32;24.80;;;19.70;;
67804;SDS011;54603;45.638;11.714;2023-02-21T09:32:58;25.70;;;19.40;;
67804;SDS011;54603;45.638;11.714;2023-02-21T09:35:23;28.40;;;18.80;;
67804;SDS011;54603;45.638;11.714;2023-02-21T09:37:49;25.00;;;19.30;;
67804;SDS011;54603;45.638;11.714;2023-02-21T09:43:30;25.40;;;19.10;;
67804;SDS011;54603;45.638;11.714;2023-02-21T09:46:04;24.90;;;18.90;;
67804;SDS011;54603;45.638;11.714;2023-02-21T09:48:35;25.00;;;19.00;;
67804;SDS011;54603;45.638;11.714;2023-02-21T09:51:03;25.40;;;19.20;;
67804;SDS011;54603;45.638;11.714;2023-02-21T09:53:33;25.90;;;19.60;;
67804;SDS011;54603;45.638;11.714;2023-02-21T09:58:52;27.00;;;17.30;;
67804;SDS011;54603;45.638;11.714;2023-02-21T10:03:52;26.00;;;19.50;;
67804;SDS011;54603;45.638;11.714;2023-02-21T10:06:50;26.00;;;18.30;;
67804;SDS011;54603;45.638;11.714;2023-02-21T10:09:25;28.00;;;19.10;;
67804;SDS011;54603;45.638;11.714;2023-02-21T10:12:20;25.30;;;19.40;;
67804;SDS011;54603;45.638;11.714;2023-02-21T10:14:55;27.50;;;19.40;;
67804;SDS011;54603;45.638;11.714;2023-02-21T10:17:41;28.10;;;19.80;;
67804;SDS011;54603;45.638;11.714;2023-02-21T10:20:46;27.80;;;18.70;;
67804;SDS011;54603;45.638;11.714;2023-02-21T10:23:20;25.50;;;19.00;;
67804;SDS011;54603;45.638;11.714;2023-02-21T10:25:48;28.00;;;19.90;;
67804;SDS011;54603;45.638;11.714;2023-02-21T10:28:21;26.10;;;19.90;;
67804;SDS011;54603;45.638;11.714;2023-02-21T10:30:48;28.40;;;20.40;;
67804;SDS011;54603;45.638;11.714;2023-02-21T10:33:17;28.90;;;19.70;;
67804;SDS011;54603;45.638;11.714;2023-02-21T10:35:42;27.40;;;19.90;;
67804;SDS011;54603;45.638;11.714;2023-02-21T10:38:09;26.50;;;19.70;;
67804;SDS011;54603;45.638;11.714;2023-02-21T10:43:08;28.10;;;19.60;;
67804;SDS011;54603;45.638;11.714;2023-02-21T10:45:44;28.10;;;19.70;;
67804;SDS011;54603;45.638;11.714;2023-02-21T10:48:15;26.60;;;18.80;;
67804;SDS011;54603;45.638;11.714;2023-02-21T10:50:51;26.70;;;18.80;;
67804;SDS011;54603;45.638;11.714;2023-02-21T10:56:11;28.00;;;19.20;;
67804;SDS011;54603;45.638;11.714;2023-02-21T11:01:12;26.10;;;19.60;;
67804;SDS011;54603;45.638;11.714;2023-02-21T11:03:44;26.20;;;20.10;;
67804;SDS011;54603;45.638;11.714;2023-02-21T11:06:20;26.30;;;19.40;;
67804;SDS011;54603;45.638;11.714;2023-02-21T11:08:48;25.20;;;19.50;;
67804;SDS011;54603;45.638;11.714;2023-02-21T11:11:13;26.10;;;18.40;;
67804;SDS011;54603;45.638;11.714;2023-02-21T11:13:39;29.40;;;19.20;;
67804;SDS011;54603;45.638;11.714;2023-02-21T11:16:15;29.70;;;19.30;;
67804;SDS011;54603;45.638;11.714;2023-02-21T11:18:42;27.20;;;19.90;;
67804;SDS011;54603;45.638;11.714;2023-02-21T11:21:13;27.50;;;20.80;;
67804;SDS011;54603;45.638;11.714;2023-02-21T11:23:44;28.50;;;20.10;;
67804;SDS011;54603;45.638;11.714;2023-02-21T11:26:13;28.10;;;20.20;;
67804;SDS011;54603;45.638;11.714;2023-02-21T11:28:42;32.40;;;22.50;;
67804;SDS011;54603;45.638;11.714;2023-02-21T11:31:14;45.10;;;26.60;;
67804;SDS011;54603;45.638;11.714;2023-02-21T11:33:54;42.90;;;28.00;;
67804;SDS011;54603;45.638;11.714;2023-02-21T11:36:30;46.80;;;28.60;;
67804;SDS011;54603;45.638;11.714;2023-02-21T11:39:04;49.80;;;29.60;;
67804;SDS011;54603;45.638;11.714;2023-02-21T11:41:36;54.30;;;31.30;;
67804;SDS011;54603;45.638;11.714;2023-02-21T11:44:23;48.90;;;29.90;;
67804;SDS011;54603;45.638;11.714;2023-02-21T11:47:06;51.30;;;30.80;;
67804;SDS011;54603;45.638;11.714;2023-02-21T11:55:36;53.00;;;31.30;;
67804;SDS011;54603;45.638;11.714;2023-02-21T12:00:57;70.40;;;41.70;;
67804;SDS011;54603;45.638;11.714;2023-02-21T12:09:18;74.70;;;41.40;;
67804;SDS011;54603;45.638;11.714;2023-02-21T12:20:23;73.90;;;43.30;;
67804;SDS011;54603;45.638;11.714;2023-02-21T12:28:20;65.00;;;41.10;;
67804;SDS011;54603;45.638;11.714;2023-02-21T12:36:29;60.10;;;36.20;;
67804;SDS011;54603;45.638;11.714;2023-02-21T12:39:00;56.60;;;34.50;;
67804;SDS011;54603;45.638;11.714;2023-02-21T12:41:48;54.70;;;33.70;;
67804;SDS011;54603;45.638;11.714;2023-02-21T12:44:27;61.10;;;35.30;;
67804;SDS011;54603;45.638;11.714;2023-02-21T12:47:18;57.60;;;33.90;;
67804;SDS011;54603;45.638;11.714;2023-02-21T12:50:02;62.00;;;36.70;;
67804;SDS011;54603;45.638;11.714;2023-02-21T12:55:01;56.90;;;35.30;;
67804;SDS011;54603;45.638;11.714;2023-02-21T12:57:37;55.40;;;35.20;;
67804;SDS011;54603;45.638;11.714;2023-02-21T13:00:14;57.30;;;36.30;;
67804;SDS011;54603;45.638;11.714;2023-02-21T13:05:37;57.60;;;35.60;;
67804;SDS011;54603;45.638;11.714;2023-02-21T13:13:29;59.30;;;35.70;;
67804;SDS011;54603;45.638;11.714;2023-02-21T13:15:59;60.20;;;36.40;;
67804;SDS011;54603;45.638;11.714;2023-02-21T13:18:31;61.90;;;36.50;;
67804;SDS011;54603;45.638;11.714;2023-02-21T13:23:51;58.90;;;35.70;;
67804;SDS011;54603;45.638;11.714;2023-02-21T13:29:25;55.20;;;35.00;;
67804;SDS011;54603;45.638;11.714;2023-02-21T13:32:00;56.30;;;33.80;;
67804;SDS011;54603;45.638;11.714;2023-02-21T13:37:30;54.20;;;34.20;;
67804;SDS011;54603;45.638;11.714;2023-02-21T13:39:58;54.20;;;33.90;;
67804;SDS011;54603;45.638;11.714;2023-02-21T13:42:31;53.60;;;33.00;;
67804;SDS011;54603;45.638;11.714;2023-02-21T13:58:28;49.30;;;32.60;;
67804;SDS011;54603;45.638;11.714;2023-02-21T14:01:19;53.20;;;30.40;;
67804;SDS011;54603;45.638;11.714;2023-02-21T14:07:07;45.40;;;30.20;;
67804;SDS011;54603;45.638;11.714;2023-02-21T14:09:34;50.80;;;30.00;;
67804;SDS011;54603;45.638;11.714;2023-02-21T14:12:01;45.00;;;28.70;;
67804;SDS011;54603;45.638;11.714;2023-02-21T14:14:29;44.30;;;29.20;;
67804;SDS011;54603;45.638;11.714;2023-02-21T14:17:03;45.20;;;29.80;;
67804;SDS011;54603;45.638;11.714;2023-02-21T14:24:29;47.10;;;30.30;;
67804;SDS011;54603;45.638;11.714;2023-02-21T14:27:03;42.20;;;27.40;;
67804;SDS011;54603;45.638;11.714;2023-02-21T14:29:37;43.70;;;28.50;;
67804;SDS011;54603;45.638;11.714;2023-02-21T14:37:15;42.50;;;27.20;;
67804;SDS011;54603;45.638;11.714;2023-02-21T14:39:43;41.90;;;25.60;;
67804;SDS011;54603;45.638;11.714;2023-02-21T14:47:54;39.70;;;26.70;;
67804;SDS011;54603;45.638;11.714;2023-02-21T15:07:19;39.90;;;25.50;;
67804;SDS011;54603;45.638;11.714;2023-02-21T15:12:43;34.90;;;22.80;;
67804;SDS011;54603;45.638;11.714;2023-02-21T15:21:06;35.10;;;23.00;;
67804;SDS011;54603;45.638;11.714;2023-02-21T15:23:37;33.80;;;22.90;;
67804;SDS011;54603;45.638;11.714;2023-02-21T15:26:17;35.80;;;23.20;;
67804;SDS011;54603;45.638;11.714;2023-02-21T15:28:46;35.20;;;23.70;;
67804;SDS011;54603;45.638;11.714;2023-02-21T15:33:55;35.00;;;23.10;;
67804;SDS011;54603;45.638;11.714;2023-02-21T15:36:21;34.50;;;23.80;;
67804;SDS011;54603;45.638;11.714;2023-02-21T15:41:38;35.00;;;25.10;;
67804;SDS011;54603;45.638;11.714;2023-02-21T15:44:10;34.30;;;23.40;;
67804;SDS011;54603;45.638;11.714;2023-02-21T15:46:50;32.30;;;23.20;;
67804;SDS011;54603;45.638;11.714;2023-02-21T15:49:32;37.40;;;23.90;;
67804;SDS011;54603;45.638;11.714;2023-02-21T15:52:01;36.00;;;24.60;;
67804;SDS011;54603;45.638;11.714;2023-02-21T15:54:29;35.80;;;25.20;;
67804;SDS011;54603;45.638;11.714;2023-02-21T15:57:04;41.90;;;25.10;;
67804;SDS011;54603;45.638;11.714;2023-02-21T15:59:41;34.50;;;23.90;;
67804;SDS011;54603;45.638;11.714;2023-02-21T16:02:12;40.20;;;25.60;;
67804;SDS011;54603;45.638;11.714;2023-02-21T16:04:50;38.60;;;25.30;;
67804;SDS011;54603;45.638;11.714;2023-02-21T16:10:11;37.10;;;26.60;;
67804;SDS011;54603;45.638;11.714;2023-02-21T16:12:52;41.00;;;26.40;;
67804;SDS011;54603;45.638;11.714;2023-02-21T16:15:43;43.20;;;26.40;;
67804;SDS011;54603;45.638;11.714;2023-02-21T16:18:15;40.90;;;28.00;;
67804;SDS011;54603;45.638;11.714;2023-02-21T16:20:43;45.50;;;29.50;;
67804;SDS011;54603;45.638;11.714;2023-02-21T16:28:40;45.80;;;28.50;;
67804;SDS011;54603;45.638;11.714;2023-02-21T16:31:08;48.10;;;28.90;;
67804;SDS011;54603;45.638;11.714;2023-02-21T16:33:41;45.30;;;28.90;;
67804;SDS011;54603;45.638;11.714;2023-02-21T16:36:08;43.50;;;29.90;;
67804;SDS011;54603;45.638;11.714;2023-02-21T16:39:05;42.20;;;28.20;;
67804;SDS011;54603;45.638;11.714;2023-02-21T16:41:37;44.80;;;28.30;;
67804;SDS011;54603;45.638;11.714;2023-02-21T16:44:02;47.00;;;28.10;;
67804;SDS011;54603;45.638;11.714;2023-02-21T16:46:28;42.90;;;28.30;;
67804;SDS011;54603;45.638;11.714;2023-02-21T16:48:56;42.40;;;28.00;;
67804;SDS011;54603;45.638;11.714;2023-02-21T16:51:25;42.60;;;27.30;;
67804;SDS011;54603;45.638;11.714;2023-02-21T16:53:57;40.00;;;27.00;;
67804;SDS011;54603;45.638;11.714;2023-02-21T16:56:23;40.20;;;26.70;;
67804;SDS011;54603;45.638;11.714;2023-02-21T16:58:49;47.60;;;27.90;;
67804;SDS011;54603;45.638;11.714;2023-02-21T17:01:28;42.20;;;27.20;;
67804;SDS011;54603;45.638;11.714;2023-02-21T17:03:57;43.00;;;28.50;;
67804;SDS011;54603;45.638;11.714;2023-02-21T17:06:24;47.00;;;28.30;;
67804;SDS011;54603;45.638;11.714;2023-02-21T17:08:50;40.00;;;27.60;;
67804;SDS011;54603;45.638;11.714;2023-02-21T17:11:16;41.00;;;27.30;;
67804;SDS011;54603;45.638;11.714;2023-02-21T17:13:42;39.00;;;27.20;;
67804;SDS011;54603;45.638;11.714;2023-02-21T17:16:08;42.90;;;26.30;;
67804;SDS011;54603;45.638;11.714;2023-02-21T17:18:34;38.00;;;25.60;;
67804;SDS011;54603;45.638;11.714;2023-02-21T17:20:59;41.00;;;27.30;;
67804;SDS011;54603;45.638;11.714;2023-02-21T17:23:25;43.10;;;26.30;;
67804;SDS011;54603;45.638;11.714;2023-02-21T17:25:51;41.50;;;26.10;;
67804;SDS011;54603;45.638;11.714;2023-02-21T17:28:16;38.90;;;25.80;;
67804;SDS011;54603;45.638;11.714;2023-02-21T17:30:42;39.40;;;24.90;;
67804;SDS011;54603;45.638;11.714;2023-02-21T17:33:08;34.70;;;25.50;;
67804;SDS011;54603;45.638;11.714;2023-02-21T17:35:35;36.30;;;24.70;;
67804;SDS011;54603;45.638;11.714;2023-02-21T17:38:01;36.70;;;24.80;;
67804;SDS011;54603;45.638;11.714;2023-02-21T17:40:27;33.90;;;24.20;;
67804;SDS011;54603;45.638;11.714;2023-02-21T17:42:53;36.40;;;25.00;;
67804;SDS011;54603;45.638;11.714;2023-02-21T17:45:20;43.10;;;24.10;;
67804;SDS011;54603;45.638;11.714;2023-02-21T17:47:47;38.50;;;24.00;;
67804;SDS011;54603;45.638;11.714;2023-02-21T17:50:25;35.10;;;24.00;;
67804;SDS011;54603;45.638;11.714;2023-02-21T17:52:52;34.90;;;24.00;;
67804;SDS011;54603;45.638;11.714;2023-02-21T17:55:21;34.40;;;24.10;;
67804;SDS011;54603;45.638;11.714;2023-02-21T17:57:49;36.00;;;24.80;;
67804;SDS011;54603;45.638;11.714;2023-02-21T18:00:19;42.40;;;26.40;;
67804;SDS011;54603;45.638;11.714;2023-02-21T18:02:48;41.10;;;25.80;;
67804;SDS011;54603;45.638;11.714;2023-02-21T18:05:14;40.10;;;25.80;;
67804;SDS011;54603;45.638;11.714;2023-02-21T18:07:47;38.10;;;25.30;;
67804;SDS011;54603;45.638;11.714;2023-02-21T18:10:14;41.20;;;24.90;;
67804;SDS011;54603;45.638;11.714;2023-02-21T18:12:42;40.10;;;26.00;;
67804;SDS011;54603;45.638;11.714;2023-02-21T18:15:08;39.90;;;25.30;;
67804;SDS011;54603;45.638;11.714;2023-02-21T18:17:35;44.90;;;27.60;;
67804;SDS011;54603;45.638;11.714;2023-02-21T18:20:03;38.90;;;26.60;;
67804;SDS011;54603;45.638;11.714;2023-02-21T18:22:37;40.50;;;26.30;;
67804;SDS011;54603;45.638;11.714;2023-02-21T18:25:05;40.40;;;27.40;;
67804;SDS011;54603;45.638;11.714;2023-02-21T18:27:33;41.50;;;27.10;;
67804;SDS011;54603;45.638;11.714;2023-02-21T18:30:02;40.30;;;26.40;;
67804;SDS011;54603;45.638;11.714;2023-02-21T18:32:28;42.50;;;27.40;;
67804;SDS011;54603;45.638;11.714;2023-02-21T18:35:03;40.80;;;26.90;;